Time,TemperatureF,DewpointF,PressureIn,WindDirection,WindDirectionDegrees,WindSpeedMPH,WindSpeedGustMPH,Humidity,HourlyPrecipIn,Conditions,Clouds,dailyrainin,SoftwareType,DateUTC
2013-05-27 00:12:00,54.6,48.0,30.06,ESE,104,2.0,7.0,77,0.00,,,0.00,weatherlink.com 1.10,2013-05-27 07:12:00,
2013-05-27 00:27:00,54.5,47.0,30.06,NE,48,2.0,6.0,77,0.00,,,0.00,weatherlink.com 1.10,2013-05-27 07:27:00,
2013-05-27 00:42:00,54.3,47.0,30.06,North,356,3.0,8.0,77,0.00,,,0.00,weatherlink.com 1.10,2013-05-27 07:42:00,
2013-05-27 00:57:00,54.1,46.0,30.06,NNE,16,1.0,4.0,75,0.00,,,0.00,weatherlink.com 1.10,2013-05-27 07:57:00,
2013-05-27 01:12:00,54.3,47.0,30.06,NE,52,0.0,6.0,76,0.00,,,0.00,weatherlink.com 1.10,2013-05-27 08:12:00,
2013-05-27 01:27:00,54.3,47.0,30.06,NNE,15,1.0,8.0,76,0.00,,,0.00,weatherlink.com 1.10,2013-05-27 08:27:00,
2013-05-27 01:42:00,54.2,47.0,30.06,ENE,59,1.0,6.0,76,0.00,,,0.00,weatherlink.com 1.10,2013-05-27 08:42:00,
2013-05-27 01:57:00,53.8,46.0,30.05,ENE,65,0.0,3.0,76,0.00,,,0.00,weatherlink.com 1.10,2013-05-27 08:57:00,
2013-05-27 02:12:00,53.6,47.0,30.05,NE,48,0.0,4.0,77,0.00,,,0.00,weatherlink.com 1.10,2013-05-27 09:12:00,
2013-05-27 02:27:00,53.3,47.0,30.05,North,6,1.0,5.0,78,0.00,,,0.00,weatherlink.com 1.10,2013-05-27 09:27:00,
2013-05-27 02:42:00,53.5,47.0,30.05,NE,39,5.0,7.0,79,0.00,,,0.00,weatherlink.com 1.10,2013-05-27 09:42:00,
2013-05-27 02:57:00,53.5,48.0,30.04,ENE,68,1.0,8.0,80,0.00,,,0.00,weatherlink.com 1.10,2013-05-27 09:57:00,
2013-05-27 03:12:00,53.3,48.0,30.04,NNE,27,2.0,7.0,81,0.00,,,0.00,weatherlink.com 1.10,2013-05-27 10:12:00,
2013-05-27 03:27:00,53.3,47.0,30.04,NNE,27,2.0,4.0,80,0.00,,,0.00,weatherlink.com 1.10,2013-05-27 10:27:00,
2013-05-27 03:42:00,53.3,48.0,30.03,NNE,18,4.0,8.0,81,0.00,,,0.00,weatherlink.com 1.10,2013-05-27 10:42:00,
2013-05-27 03:57:00,53.2,48.0,30.04,East,84,3.0,11.0,82,0.00,,,0.00,weatherlink.com 1.10,2013-05-27 10:57:00,
2013-05-27 04:12:00,53.3,48.0,30.03,NE,37,0.0,6.0,82,0.00,,,0.00,weatherlink.com 1.10,2013-05-27 11:12:00,
2013-05-27 04:27:00,53.2,48.0,30.03,NE,54,1.0,6.0,81,0.00,,,0.00,weatherlink.com 1.10,2013-05-27 11:27:00,
2013-05-27 04:42:00,53.5,48.0,30.03,NNE,17,0.0,7.0,81,0.00,,,0.00,weatherlink.com 1.10,2013-05-27 11:42:00,
2013-05-27 04:57:00,53.5,48.0,30.03,ESE,117,0.0,5.0,80,0.00,,,0.00,weatherlink.com 1.10,2013-05-27 11:57:00,
2013-05-27 05:12:00,54.1,48.0,30.03,NNW,344,5.0,8.0,81,0.00,,,0.00,weatherlink.com 1.10,2013-05-27 12:12:00,
2013-05-27 05:27:00,54.7,49.0,30.03,NNE,13,3.0,8.0,80,0.00,,,0.00,weatherlink.com 1.10,2013-05-27 12:27:00,
2013-05-27 05:42:00,55.2,50.0,30.03,ENE,77,1.0,6.0,82,0.00,,,0.00,weatherlink.com 1.10,2013-05-27 12:42:00,
2013-05-27 05:57:00,55.2,50.0,30.03,ENE,65,1.0,5.0,83,0.00,,,0.00,weatherlink.com 1.10,2013-05-27 12:57:00,
2013-05-27 06:12:00,56.1,51.0,30.03,ENE,70,1.0,5.0,84,0.00,,,0.00,weatherlink.com 1.10,2013-05-27 13:12:00,
2013-05-27 06:27:00,57.3,52.0,30.03,NE,35,2.0,5.0,83,0.00,,,0.00,weatherlink.com 1.10,2013-05-27 13:27:00,
2013-05-27 06:42:00,58.0,53.0,30.03,NNE,30,5.0,10.0,82,0.00,,,0.00,weatherlink.com 1.10,2013-05-27 13:42:00,
2013-05-27 06:57:00,58.1,53.0,30.04,NE,44,3.0,12.0,83,0.00,,,0.00,weatherlink.com 1.10,2013-05-27 13:57:00,
2013-05-27 07:12:00,58.7,53.0,30.04,NE,53,4.0,10.0,82,0.00,,,0.00,weatherlink.com 1.10,2013-05-27 14:12:00,
2013-05-27 07:27:00,58.9,53.0,30.04,NNE,29,6.0,9.0,82,0.00,,,0.00,weatherlink.com 1.10,2013-05-27 14:27:00,
2013-05-27 07:43:00,58.9,53.0,30.04,NNE,29,2.0,9.0,82,0.00,,,0.00,weatherlink.com 1.10,2013-05-27 14:43:00,
2013-05-27 07:58:00,59.1,54.0,30.03,NE,45,2.0,9.0,82,0.00,,,0.00,weatherlink.com 1.10,2013-05-27 14:58:00,
2013-05-27 08:13:00,59.8,54.0,30.04,SE,140,1.0,10.0,81,0.00,,,0.00,weatherlink.com 1.10,2013-05-27 15:13:00,
2013-05-27 08:28:00,60.0,54.0,30.04,ESE,105,1.0,9.0,80,0.00,,,0.00,weatherlink.com 1.10,2013-05-27 15:28:00,
2013-05-27 08:43:00,60.1,54.0,30.04,North,6,5.0,8.0,79,0.00,,,0.00,weatherlink.com 1.10,2013-05-27 15:43:00,
2013-05-27 08:58:00,60.5,54.0,30.05,East,85,2.0,7.0,78,0.00,,,0.00,weatherlink.com 1.10,2013-05-27 15:58:00,
2013-05-27 09:13:00,61.0,53.0,30.05,NE,54,2.0,9.0,76,0.00,,,0.00,weatherlink.com 1.10,2013-05-27 16:13:00,
2013-05-27 09:28:00,61.1,53.0,30.05,North,1,5.0,8.0,74,0.00,,,0.00,weatherlink.com 1.10,2013-05-27 16:28:00,
2013-05-27 09:43:00,60.8,53.0,30.04,NE,43,3.0,10.0,76,0.00,,,0.00,weatherlink.com 1.10,2013-05-27 16:43:00,
2013-05-27 09:58:00,61.2,53.0,30.04,ENE,57,1.0,5.0,75,0.00,,,0.00,weatherlink.com 1.10,2013-05-27 16:58:00,
2013-05-27 10:13:00,61.8,53.0,30.03,NNE,28,1.0,9.0,73,0.00,,,0.00,weatherlink.com 1.10,2013-05-27 17:13:00,
2013-05-27 10:28:00,62.6,53.0,30.03,NNE,18,4.0,10.0,70,0.00,,,0.00,weatherlink.com 1.10,2013-05-27 17:28:00,
2013-05-27 10:43:00,63.1,53.0,30.03,NNW,337,6.0,6.0,69,0.00,,,0.00,weatherlink.com 1.10,2013-05-27 17:43:00,
2013-05-27 10:58:00,63.3,53.0,30.04,East,86,3.0,8.0,68,0.00,,,0.00,weatherlink.com 1.10,2013-05-27 17:58:00,
2013-05-27 11:13:00,64.0,53.0,30.05,ESE,115,1.0,6.0,68,0.00,,,0.00,weatherlink.com 1.10,2013-05-27 18:13:00,
2013-05-27 11:28:00,63.4,53.0,30.05,NE,40,1.0,8.0,69,0.00,,,0.00,weatherlink.com 1.10,2013-05-27 18:28:00,
2013-05-27 11:43:00,62.3,53.0,30.06,NNE,20,4.0,8.0,72,0.00,,,0.00,weatherlink.com 1.10,2013-05-27 18:43:00,
2013-05-27 11:58:00,60.9,53.0,30.06,East,96,1.0,9.0,76,0.00,,,0.00,weatherlink.com 1.10,2013-05-27 18:58:00,
2013-05-27 12:13:00,60.4,55.0,30.07,NE,49,1.0,5.0,81,0.00,,,0.00,weatherlink.com 1.10,2013-05-27 19:13:00,
2013-05-27 12:28:00,60.7,55.0,30.06,NNE,13,2.0,6.0,82,0.00,,,0.00,weatherlink.com 1.10,2013-05-27 19:28:00,
2013-05-27 12:43:00,61.7,56.0,30.07,ENE,61,2.0,5.0,80,0.00,,,0.00,weatherlink.com 1.10,2013-05-27 19:43:00,
2013-05-27 12:58:00,62.7,57.0,30.06,NNE,14,1.0,5.0,82,0.00,,,0.00,weatherlink.com 1.10,2013-05-27 19:58:00,
2013-05-27 13:13:00,63.3,56.0,30.06,ENE,58,3.0,8.0,76,0.00,,,0.00,weatherlink.com 1.10,2013-05-27 20:13:00,
2013-05-27 13:28:00,63.2,56.0,30.06,North,7,2.0,9.0,76,0.00,,,0.00,weatherlink.com 1.10,2013-05-27 20:28:00,
2013-05-27 13:43:00,62.3,55.0,30.06,ENE,67,3.0,5.0,78,0.00,,,0.00,weatherlink.com 1.10,2013-05-27 20:43:00,
2013-05-27 13:58:00,62.2,56.0,30.06,ESE,104,0.0,4.0,79,0.00,,,0.00,weatherlink.com 1.10,2013-05-27 20:58:00,
2013-05-27 14:13:00,62.0,55.0,30.07,NE,45,4.0,8.0,79,0.00,,,0.00,weatherlink.com 1.10,2013-05-27 21:13:00,
2013-05-27 14:28:00,62.3,56.0,30.06,North,354,1.0,4.0,81,0.00,,,0.00,weatherlink.com 1.10,2013-05-27 21:28:00,
2013-05-27 14:43:00,63.6,56.0,30.05,NNE,23,3.0,7.0,75,0.00,,,0.00,weatherlink.com 1.10,2013-05-27 21:43:00,
2013-05-27 14:58:00,64.2,55.0,30.05,North,360,2.0,5.0,72,0.00,,,0.00,weatherlink.com 1.10,2013-05-27 21:58:00,
2013-05-27 15:13:00,64.7,56.0,30.05,South,169,0.0,3.0,73,0.00,,,0.00,weatherlink.com 1.10,2013-05-27 22:13:00,
2013-05-27 15:28:00,65.5,55.0,30.05,East,87,0.0,5.0,69,0.00,,,0.00,weatherlink.com 1.10,2013-05-27 22:28:00,
2013-05-27 15:43:00,64.5,54.0,30.05,NE,53,0.0,5.0,68,0.00,,,0.00,weatherlink.com 1.10,2013-05-27 22:43:00,
2013-05-27 15:58:00,63.2,54.0,30.05,NE,41,2.0,5.0,72,0.00,,,0.00,weatherlink.com 1.10,2013-05-27 22:58:00,
2013-05-27 16:13:00,63.3,54.0,30.04,NE,52,4.0,7.0,71,0.00,,,0.00,weatherlink.com 1.10,2013-05-27 23:13:00,
2013-05-27 16:28:00,62.5,54.0,30.04,ENE,60,1.0,6.0,73,0.00,,,0.00,weatherlink.com 1.10,2013-05-27 23:28:00,
2013-05-27 16:43:00,62.2,54.0,30.04,North,356,0.0,3.0,75,0.00,,,0.00,weatherlink.com 1.10,2013-05-27 23:43:00,
2013-05-27 16:58:00,62.5,54.0,30.04,SE,139,2.0,5.0,74,0.00,,,0.00,weatherlink.com 1.10,2013-05-27 23:58:00,
2013-05-27 17:13:00,62.3,54.0,30.03,NNE,30,2.0,6.0,75,0.00,,,0.00,weatherlink.com 1.10,2013-05-28 00:13:00,
2013-05-27 17:28:00,63.4,55.0,30.02,NNE,22,2.0,5.0,73,0.00,,,0.00,weatherlink.com 1.10,2013-05-28 00:28:00,
2013-05-27 17:43:00,63.3,55.0,30.02,NE,44,1.0,4.0,74,0.00,,,0.00,weatherlink.com 1.10,2013-05-28 00:43:00,
2013-05-27 17:58:00,63.0,55.0,30.01,NE,47,2.0,5.0,74,0.00,,,0.00,weatherlink.com 1.10,2013-05-28 00:58:00,
2013-05-27 18:13:00,62.4,54.0,30.01,North,8,0.0,5.0,75,0.00,,,0.00,weatherlink.com 1.10,2013-05-28 01:13:00,
2013-05-27 18:28:00,61.5,55.0,30.00,NE,35,3.0,4.0,78,0.00,,,0.00,weatherlink.com 1.10,2013-05-28 01:28:00,
2013-05-27 18:43:00,61.3,55.0,30.00,NE,44,1.0,2.0,79,0.00,,,0.00,weatherlink.com 1.10,2013-05-28 01:43:00,
2013-05-27 18:58:00,61.0,55.0,30.00,East,96,0.0,1.0,80,0.00,,,0.00,weatherlink.com 1.10,2013-05-28 01:58:00,
2013-05-27 19:13:00,60.8,55.0,29.99,NE,46,1.0,2.0,81,0.00,,,0.00,weatherlink.com 1.10,2013-05-28 02:13:00,
2013-05-27 19:29:00,60.4,55.0,29.99,NNE,16,2.0,3.0,83,0.00,,,0.00,weatherlink.com 1.10,2013-05-28 02:29:00,
2013-05-27 19:44:00,59.6,55.0,29.99,NE,42,1.0,3.0,85,0.00,,,0.00,weatherlink.com 1.10,2013-05-28 02:44:00,
2013-05-27 19:59:00,58.8,55.0,29.99,NE,50,1.0,2.0,88,0.00,,,0.00,weatherlink.com 1.10,2013-05-28 02:59:00,
2013-05-27 20:14:00,58.5,55.0,29.99,NE,54,0.0,3.0,89,0.00,,,0.00,weatherlink.com 1.10,2013-05-28 03:14:00,
2013-05-27 20:29:00,58.3,55.0,29.98,NE,45,0.0,1.0,89,0.00,,,0.00,weatherlink.com 1.10,2013-05-28 03:29:00,
2013-05-27 20:44:00,58.1,55.0,29.98,ENE,73,0.0,1.0,89,0.00,,,0.00,weatherlink.com 1.10,2013-05-28 03:44:00,
2013-05-27 20:59:00,58.0,55.0,29.97,NE,56,0.0,1.0,90,0.00,,,0.00,weatherlink.com 1.10,2013-05-28 03:59:00,
2013-05-27 21:14:00,57.9,55.0,29.97,ESE,106,0.0,0.0,90,0.00,,,0.00,weatherlink.com 1.10,2013-05-28 04:14:00,
2013-05-27 21:30:00,57.9,55.0,29.97,NE,55,0.0,1.0,89,0.00,,,0.00,weatherlink.com 1.10,2013-05-28 04:30:00,
2013-05-27 21:44:00,57.8,55.0,29.97,NNE,32,0.0,1.0,90,0.01,,,0.01,weatherlink.com 1.10,2013-05-28 04:44:00,
2013-05-27 21:59:00,57.6,55.0,29.98,ENE,60,0.0,1.0,91,0.02,,,0.02,weatherlink.com 1.10,2013-05-28 04:59:00,
2013-05-27 22:14:00,57.3,55.0,29.98,NE,52,0.0,2.0,92,0.03,,,0.03,weatherlink.com 1.10,2013-05-28 05:14:00,
2013-05-27 22:29:00,57.1,55.0,29.98,ENE,60,0.0,2.0,92,0.03,,,0.03,weatherlink.com 1.10,2013-05-28 05:29:00,
2013-05-27 22:44:00,57.0,55.0,29.97,SE,141,0.0,1.0,92,0.03,,,0.04,weatherlink.com 1.10,2013-05-28 05:44:00,
2013-05-27 22:59:00,56.9,55.0,29.96,SE,138,0.0,1.0,93,0.02,,,0.04,weatherlink.com 1.10,2013-05-28 05:59:00,
2013-05-27 23:14:00,56.9,55.0,29.95,SE,138,0.0,1.0,93,0.01,,,0.04,weatherlink.com 1.10,2013-05-28 06:14:00,
2013-05-27 23:29:00,56.8,55.0,29.95,SE,138,0.0,0.0,93,0.01,,,0.04,weatherlink.com 1.10,2013-05-28 06:29:00,
2013-05-27 23:44:00,56.7,55.0,29.96,SE,138,0.0,0.0,93,0.00,,,0.04,weatherlink.com 1.10,2013-05-28 06:44:00,
2013-05-27 23:59:00,56.7,55.0,29.96,NNE,25,0.0,0.0,93,0.00,,,0.04,weatherlink.com 1.10,2013-05-28 06:59:00,